sensor_id;sensor_type;location;lat;lon;timestamp;pressure;altitude;pressure_sealevel;temperature;humidity
70370;BME280;57790;51.356;-2.906;2023-01-16T00:00:08;98897.88;;;7.36;100.00
70370;BME280;57790;51.356;-2.906;2023-01-16T00:03:09;98890.97;;;7.35;100.00
70370;BME280;57790;51.356;-2.906;2023-01-16T00:06:09;98888.34;;;7.35;100.00
70370;BME280;57790;51.356;-2.906;2023-01-16T00:09:09;98874.72;;;7.31;100.00
70370;BME280;57790;51.356;-2.906;2023-01-16T00:12:10;98876.38;;;7.32;100.00
70370;BME280;57790;51.356;-2.906;2023-01-16T00:15:11;98872.09;;;7.31;100.00
70370;BME280;57790;51.356;-2.906;2023-01-16T00:18:11;98860.13;;;7.29;100.00
70370;BME280;57790;51.356;-2.906;2023-01-16T00:21:12;98858.50;;;7.28;100.00
70370;BME280;57790;51.356;-2.906;2023-01-16T00:24:12;98856.66;;;7.28;100.00
70370;BME280;57790;51.356;-2.906;2023-01-16T00:27:13;98849.97;;;7.26;100.00
70370;BME280;57790;51.356;-2.906;2023-01-16T00:30:13;98846.84;;;7.22;100.00
70370;BME280;57790;51.356;-2.906;2023-01-16T00:33:14;98844.59;;;7.19;100.00
70370;BME280;57790;51.356;-2.906;2023-01-16T00:36:14;98837.09;;;7.16;100.00
70370;BME280;57790;51.356;-2.906;2023-01-16T00:39:14;98824.72;;;7.16;100.00
70370;BME280;57790;51.356;-2.906;2023-01-16T00:42:15;98815.81;;;7.18;100.00
70370;BME280;57790;51.356;-2.906;2023-01-16T00:45:15;98819.03;;;7.13;100.00
70370;BME280;57790;51.356;-2.906;2023-01-16T00:48:15;98813.03;;;7.04;100.00
70370;BME280;57790;51.356;-2.906;2023-01-16T00:51:16;98807.03;;;7.10;100.00
70370;BME280;57790;51.356;-2.906;2023-01-16T00:54:16;98806.38;;;7.08;100.00
70370;BME280;57790;51.356;-2.906;2023-01-16T00:57:17;98796.69;;;7.09;100.00
70370;BME280;57790;51.356;-2.906;2023-01-16T01:00:18;98785.16;;;7.10;100.00
70370;BME280;57790;51.356;-2.906;2023-01-16T01:03:21;98788.13;;;7.07;100.00
70370;BME280;57790;51.356;-2.906;2023-01-16T01:06:21;98784.25;;;7.03;100.00
70370;BME280;57790;51.356;-2.906;2023-01-16T01:09:22;98772.31;;;7.07;100.00
70370;BME280;57790;51.356;-2.906;2023-01-16T01:12:22;98767.44;;;7.04;100.00
70370;BME280;57790;51.356;-2.906;2023-01-16T01:15:23;98766.25;;;7.06;100.00
70370;BME280;57790;51.356;-2.906;2023-01-16T01:18:23;98755.91;;;7.05;100.00
70370;BME280;57790;51.356;-2.906;2023-01-16T01:21:24;98754.47;;;7.02;100.00
70370;BME280;57790;51.356;-2.906;2023-01-16T01:24:24;98754.47;;;7.02;100.00
70370;BME280;57790;51.356;-2.906;2023-01-16T01:27:24;98747.31;;;6.96;100.00
70370;BME280;57790;51.356;-2.906;2023-01-16T01:30:25;98743.00;;;6.89;100.00
70370;BME280;57790;51.356;-2.906;2023-01-16T01:33:25;98738.47;;;6.82;100.00
70370;BME280;57790;51.356;-2.906;2023-01-16T01:36:25;98732.22;;;6.83;100.00
70370;BME280;57790;51.356;-2.906;2023-01-16T01:39:26;98730.81;;;6.88;100.00
70370;BME280;57790;51.356;-2.906;2023-01-16T01:42:26;98727.44;;;6.72;100.00
70370;BME280;57790;51.356;-2.906;2023-01-16T01:45:53;98714.78;;;6.82;100.00
70370;BME280;57790;51.356;-2.906;2023-01-16T01:48:59;98711.69;;;6.79;100.00
70370;BME280;57790;51.356;-2.906;2023-01-16T01:52:02;98720.59;;;6.78;100.00
70370;BME280;57790;51.356;-2.906;2023-01-16T01:55:06;98717.34;;;6.76;100.00
70370;BME280;57790;51.356;-2.906;2023-01-16T01:58:08;98714.16;;;6.80;100.00
70370;BME280;57790;51.356;-2.906;2023-01-16T02:01:09;98709.63;;;6.74;100.00
70370;BME280;57790;51.356;-2.906;2023-01-16T02:04:13;98713.56;;;6.64;100.00
70370;BME280;57790;51.356;-2.906;2023-01-16T02:07:16;98706.47;;;6.43;100.00
70370;BME280;57790;51.356;-2.906;2023-01-16T02:13:28;98710.16;;;6.48;100.00
70370;BME280;57790;51.356;-2.906;2023-01-16T02:16:28;98707.97;;;6.31;100.00
70370;BME280;57790;51.356;-2.906;2023-01-16T02:49:19;98715.38;;;6.63;100.00
70370;BME280;57790;51.356;-2.906;2023-01-16T02:53:06;98722.78;;;6.74;100.00
70370;BME280;57790;51.356;-2.906;2023-01-16T02:58:55;98721.50;;;6.49;100.00
70370;BME280;57790;51.356;-2.906;2023-01-16T03:01:56;98719.19;;;6.39;100.00
70370;BME280;57790;51.356;-2.906;2023-01-16T03:04:57;98725.66;;;6.58;100.00
70370;BME280;57790;51.356;-2.906;2023-01-16T03:08:23;98719.78;;;6.56;100.00
70370;BME280;57790;51.356;-2.906;2023-01-16T03:11:30;98725.97;;;6.48;100.00
70370;BME280;57790;51.356;-2.906;2023-01-16T03:37:40;98766.66;;;6.31;100.00
70370;BME280;57790;51.356;-2.906;2023-01-16T03:40:44;98749.25;;;6.15;100.00
70370;BME280;57790;51.356;-2.906;2023-01-16T03:43:49;98752.94;;;6.36;100.00
70370;BME280;57790;51.356;-2.906;2023-01-16T03:46:51;98764.38;;;6.43;100.00
70370;BME280;57790;51.356;-2.906;2023-01-16T03:49:55;98755.53;;;6.50;100.00
70370;BME280;57790;51.356;-2.906;2023-01-16T03:53:01;98763.75;;;6.41;100.00
70370;BME280;57790;51.356;-2.906;2023-01-16T03:59:13;98776.34;;;6.45;100.00
70370;BME280;57790;51.356;-2.906;2023-01-16T04:05:27;98790.31;;;6.46;100.00
70370;BME280;57790;51.356;-2.906;2023-01-16T04:08:34;98791.31;;;6.45;100.00
70370;BME280;57790;51.356;-2.906;2023-01-16T04:11:36;98799.41;;;6.43;100.00
70370;BME280;57790;51.356;-2.906;2023-01-16T04:14:38;98795.16;;;6.42;100.00
70370;BME280;57790;51.356;-2.906;2023-01-16T04:17:40;98807.94;;;6.45;100.00
70370;BME280;57790;51.356;-2.906;2023-01-16T04:20:43;98808.94;;;6.44;100.00
70370;BME280;57790;51.356;-2.906;2023-01-16T04:23:45;98808.50;;;6.41;100.00
70370;BME280;57790;51.356;-2.906;2023-01-16T04:26:45;98805.41;;;6.37;100.00
70370;BME280;57790;51.356;-2.906;2023-01-16T04:29:46;98822.84;;;6.38;100.00
70370;BME280;57790;51.356;-2.906;2023-01-16T04:32:46;98819.72;;;6.35;100.00
70370;BME280;57790;51.356;-2.906;2023-01-16T04:35:46;98825.00;;;6.35;100.00
70370;BME280;57790;51.356;-2.906;2023-01-16T04:38:47;98822.34;;;6.35;100.00
70370;BME280;57790;51.356;-2.906;2023-01-16T04:41:47;98830.91;;;6.37;100.00
70370;BME280;57790;51.356;-2.906;2023-01-16T04:44:50;98822.72;;;6.32;100.00
70370;BME280;57790;51.356;-2.906;2023-01-16T04:47:51;98825.91;;;6.27;100.00
70370;BME280;57790;51.356;-2.906;2023-01-16T04:50:51;98826.56;;;6.29;100.00
70370;BME280;57790;51.356;-2.906;2023-01-16T04:53:52;98827.81;;;6.18;100.00
70370;BME280;57790;51.356;-2.906;2023-01-16T04:56:52;98825.19;;;6.18;100.00
70370;BME280;57790;51.356;-2.906;2023-01-16T04:59:52;98828.44;;;6.20;100.00
70370;BME280;57790;51.356;-2.906;2023-01-16T05:02:53;98844.41;;;6.19;100.00
70370;BME280;57790;51.356;-2.906;2023-01-16T05:05:53;98842.59;;;6.19;100.00
70370;BME280;57790;51.356;-2.906;2023-01-16T05:08:54;98840.78;;;6.05;100.00
70370;BME280;57790;51.356;-2.906;2023-01-16T05:11:54;98846.59;;;6.15;100.00
70370;BME280;57790;51.356;-2.906;2023-01-16T05:14:54;98852.03;;;6.14;100.00
70370;BME280;57790;51.356;-2.906;2023-01-16T05:17:55;98847.97;;;6.11;100.00
70370;BME280;57790;51.356;-2.906;2023-01-16T05:20:56;98849.84;;;6.17;100.00
70370;BME280;57790;51.356;-2.906;2023-01-16T05:23:56;98852.41;;;6.11;100.00
70370;BME280;57790;51.356;-2.906;2023-01-16T05:26:57;98854.41;;;6.09;100.00
70370;BME280;57790;51.356;-2.906;2023-01-16T05:29:57;98856.84;;;6.10;100.00
70370;BME280;57790;51.356;-2.906;2023-01-16T05:32:58;98861.38;;;6.02;100.00
70370;BME280;57790;51.356;-2.906;2023-01-16T05:35:58;98859.00;;;6.07;100.00
70370;BME280;57790;51.356;-2.906;2023-01-16T05:38:59;98865.09;;;6.07;100.00
70370;BME280;57790;51.356;-2.906;2023-01-16T05:41:59;98862.38;;;6.01;100.00
70370;BME280;57790;51.356;-2.906;2023-01-16T05:44:59;98863.81;;;6.03;100.00
70370;BME280;57790;51.356;-2.906;2023-01-16T05:47:59;98874.34;;;6.03;100.00
70370;BME280;57790;51.356;-2.906;2023-01-16T05:51:00;98873.16;;;6.06;100.00
70370;BME280;57790;51.356;-2.906;2023-01-16T05:54:01;98882.41;;;6.02;100.00
70370;BME280;57790;51.356;-2.906;2023-01-16T05:57:02;98889.13;;;6.04;100.00
70370;BME280;57790;51.356;-2.906;2023-01-16T06:00:04;98884.22;;;6.01;100.00
70370;BME280;57790;51.356;-2.906;2023-01-16T06:03:06;98888.22;;;5.97;100.00
70370;BME280;57790;51.356;-2.906;2023-01-16T06:06:07;98898.09;;;5.95;100.00
70370;BME280;57790;51.356;-2.906;2023-01-16T06:09:07;98888.56;;;5.94;100.00
70370;BME280;57790;51.356;-2.906;2023-01-16T06:12:14;98895.81;;;5.92;100.00
70370;BME280;57790;51.356;-2.906;2023-01-16T06:15:14;98900.06;;;5.93;100.00
70370;BME280;57790;51.356;-2.906;2023-01-16T06:18:15;98896.47;;;5.94;100.00
70370;BME280;57790;51.356;-2.906;2023-01-16T06:21:16;98915.03;;;5.92;100.00
70370;BME280;57790;51.356;-2.906;2023-01-16T06:24:16;98914.88;;;5.94;100.00
70370;BME280;57790;51.356;-2.906;2023-01-16T06:27:17;98915.22;;;5.91;100.00
70370;BME280;57790;51.356;-2.906;2023-01-16T06:30:17;98918.00;;;5.89;100.00
70370;BME280;57790;51.356;-2.906;2023-01-16T06:33:18;98915.91;;;5.85;100.00
70370;BME280;57790;51.356;-2.906;2023-01-16T06:36:18;98911.75;;;5.90;100.00
70370;BME280;57790;51.356;-2.906;2023-01-16T06:39:19;98917.03;;;5.90;100.00
70370;BME280;57790;51.356;-2.906;2023-01-16T06:42:19;98914.38;;;5.90;100.00
70370;BME280;57790;51.356;-2.906;2023-01-16T06:45:20;98919.47;;;5.92;100.00
70370;BME280;57790;51.356;-2.906;2023-01-16T06:48:22;98922.75;;;5.94;100.00
70370;BME280;57790;51.356;-2.906;2023-01-16T06:51:23;98926.84;;;5.96;100.00
70370;BME280;57790;51.356;-2.906;2023-01-16T06:54:23;98935.38;;;5.99;100.00
70370;BME280;57790;51.356;-2.906;2023-01-16T06:57:23;98937.63;;;6.02;100.00
70370;BME280;57790;51.356;-2.906;2023-01-16T07:00:24;98939.63;;;6.00;100.00
70370;BME280;57790;51.356;-2.906;2023-01-16T07:03:25;98936.19;;;5.99;100.00
70370;BME280;57790;51.356;-2.906;2023-01-16T07:06:26;98944.00;;;6.07;100.00
70370;BME280;57790;51.356;-2.906;2023-01-16T07:09:26;98948.09;;;6.10;100.00
70370;BME280;57790;51.356;-2.906;2023-01-16T07:12:29;98958.00;;;6.08;100.00
70370;BME280;57790;51.356;-2.906;2023-01-16T07:15:30;98968.34;;;6.09;100.00
70370;BME280;57790;51.356;-2.906;2023-01-16T07:18:49;98960.72;;;6.14;100.00
70370;BME280;57790;51.356;-2.906;2023-01-16T07:22:10;98964.16;;;6.15;100.00
70370;BME280;57790;51.356;-2.906;2023-01-16T07:25:33;98969.88;;;6.18;100.00
70370;BME280;57790;51.356;-2.906;2023-01-16T07:28:34;98980.94;;;6.14;100.00
70370;BME280;57790;51.356;-2.906;2023-01-16T07:31:35;98974.97;;;6.20;100.00
70370;BME280;57790;51.356;-2.906;2023-01-16T07:34:36;98985.66;;;6.18;100.00
70370;BME280;57790;51.356;-2.906;2023-01-16T07:37:36;98994.56;;;6.17;100.00
70370;BME280;57790;51.356;-2.906;2023-01-16T07:40:38;98996.38;;;6.17;100.00
70370;BME280;57790;51.356;-2.906;2023-01-16T07:43:39;98994.91;;;6.14;100.00
70370;BME280;57790;51.356;-2.906;2023-01-16T07:46:39;98989.81;;;6.13;100.00
70370;BME280;57790;51.356;-2.906;2023-01-16T07:49:40;98997.31;;;6.24;100.00
70370;BME280;57790;51.356;-2.906;2023-01-16T07:52:42;99000.13;;;6.22;100.00
70370;BME280;57790;51.356;-2.906;2023-01-16T07:55:43;99004.53;;;6.22;100.00
70370;BME280;57790;51.356;-2.906;2023-01-16T07:58:44;98998.63;;;6.20;100.00
70370;BME280;57790;51.356;-2.906;2023-01-16T08:01:44;99004.38;;;6.23;100.00
70370;BME280;57790;51.356;-2.906;2023-01-16T08:04:47;99012.31;;;6.15;100.00
70370;BME280;57790;51.356;-2.906;2023-01-16T08:07:47;99026.66;;;6.13;100.00
70370;BME280;57790;51.356;-2.906;2023-01-16T08:10:52;99024.22;;;6.11;100.00
70370;BME280;57790;51.356;-2.906;2023-01-16T08:13:53;99043.91;;;6.15;100.00
70370;BME280;57790;51.356;-2.906;2023-01-16T08:16:53;99053.06;;;6.19;100.00
70370;BME280;57790;51.356;-2.906;2023-01-16T08:19:53;99054.19;;;6.25;100.00
70370;BME280;57790;51.356;-2.906;2023-01-16T08:22:54;99060.63;;;6.22;100.00
70370;BME280;57790;51.356;-2.906;2023-01-16T08:25:56;99061.44;;;6.23;100.00
70370;BME280;57790;51.356;-2.906;2023-01-16T08:29:00;99068.34;;;6.24;100.00
70370;BME280;57790;51.356;-2.906;2023-01-16T08:32:02;99073.06;;;6.29;100.00
70370;BME280;57790;51.356;-2.906;2023-01-16T08:35:03;99086.69;;;6.32;100.00
70370;BME280;57790;51.356;-2.906;2023-01-16T08:38:04;99087.00;;;6.37;100.00
70370;BME280;57790;51.356;-2.906;2023-01-16T08:41:04;99096.84;;;6.35;100.00
70370;BME280;57790;51.356;-2.906;2023-01-16T08:44:05;99096.03;;;6.35;100.00
70370;BME280;57790;51.356;-2.906;2023-01-16T08:47:24;99111.16;;;6.41;100.00
70370;BME280;57790;51.356;-2.906;2023-01-16T08:50:46;99102.88;;;6.44;100.00
70370;BME280;57790;51.356;-2.906;2023-01-16T08:54:06;99109.16;;;6.43;100.00
70370;BME280;57790;51.356;-2.906;2023-01-16T08:57:06;99108.16;;;6.44;100.00
70370;BME280;57790;51.356;-2.906;2023-01-16T09:00:08;99108.59;;;6.47;100.00
70370;BME280;57790;51.356;-2.906;2023-01-16T09:03:09;99105.63;;;6.50;100.00
70370;BME280;57790;51.356;-2.906;2023-01-16T09:06:09;99114.50;;;6.49;100.00
70370;BME280;57790;51.356;-2.906;2023-01-16T09:09:09;99118.13;;;6.48;100.00
70370;BME280;57790;51.356;-2.906;2023-01-16T09:12:11;99124.91;;;6.51;100.00
70370;BME280;57790;51.356;-2.906;2023-01-16T09:15:30;99122.91;;;6.53;100.00
70370;BME280;57790;51.356;-2.906;2023-01-16T09:18:30;99130.16;;;6.51;100.00
70370;BME280;57790;51.356;-2.906;2023-01-16T09:21:30;99140.78;;;6.57;100.00
70370;BME280;57790;51.356;-2.906;2023-01-16T09:24:32;99136.78;;;6.62;100.00
70370;BME280;57790;51.356;-2.906;2023-01-16T09:27:33;99135.69;;;6.56;100.00
70370;BME280;57790;51.356;-2.906;2023-01-16T09:30:33;99145.88;;;6.59;100.00
70370;BME280;57790;51.356;-2.906;2023-01-16T09:33:34;99153.41;;;6.62;100.00
70370;BME280;57790;51.356;-2.906;2023-01-16T09:36:34;99157.69;;;6.63;100.00
70370;BME280;57790;51.356;-2.906;2023-01-16T09:39:34;99160.13;;;6.65;100.00
70370;BME280;57790;51.356;-2.906;2023-01-16T09:46:17;99163.59;;;6.65;100.00
70370;BME280;57790;51.356;-2.906;2023-01-16T09:52:28;99170.53;;;6.66;100.00
70370;BME280;57790;51.356;-2.906;2023-01-16T09:55:51;99168.69;;;6.67;100.00
70370;BME280;57790;51.356;-2.906;2023-01-16T09:59:19;99174.28;;;6.64;100.00
70370;BME280;57790;51.356;-2.906;2023-01-16T10:02:32;99169.84;;;6.64;100.00
70370;BME280;57790;51.356;-2.906;2023-01-16T10:09:18;99177.59;;;6.66;100.00
70370;BME280;57790;51.356;-2.906;2023-01-16T10:12:21;99182.88;;;6.66;100.00
70370;BME280;57790;51.356;-2.906;2023-01-16T10:25:24;99185.78;;;6.71;100.00
70370;BME280;57790;51.356;-2.906;2023-01-16T10:34:54;99191.50;;;6.74;100.00
70370;BME280;57790;51.356;-2.906;2023-01-16T10:38:06;99182.44;;;6.77;100.00
70370;BME280;57790;51.356;-2.906;2023-01-16T10:41:29;99193.78;;;6.77;100.00
70370;BME280;57790;51.356;-2.906;2023-01-16T10:45:08;99204.00;;;6.80;100.00
70370;BME280;57790;51.356;-2.906;2023-01-16T10:48:29;99199.53;;;6.81;100.00
70370;BME280;57790;51.356;-2.906;2023-01-16T10:51:49;99203.81;;;6.82;100.00
70370;BME280;57790;51.356;-2.906;2023-01-16T10:54:51;99202.00;;;6.82;100.00
70370;BME280;57790;51.356;-2.906;2023-01-16T10:58:05;99202.31;;;6.79;100.00
70370;BME280;57790;51.356;-2.906;2023-01-16T11:01:11;99198.53;;;6.82;100.00
70370;BME280;57790;51.356;-2.906;2023-01-16T11:04:18;99205.13;;;6.78;100.00
70370;BME280;57790;51.356;-2.906;2023-01-16T11:07:21;99209.06;;;6.82;100.00
70370;BME280;57790;51.356;-2.906;2023-01-16T11:10:23;99212.72;;;6.81;100.00
70370;BME280;57790;51.356;-2.906;2023-01-16T11:13:25;99221.97;;;6.92;100.00
70370;BME280;57790;51.356;-2.906;2023-01-16T11:16:44;99229.06;;;6.91;100.00
70370;BME280;57790;51.356;-2.906;2023-01-16T11:20:04;99223.56;;;7.01;100.00
70370;BME280;57790;51.356;-2.906;2023-01-16T11:23:22;99226.31;;;7.07;100.00
70370;BME280;57790;51.356;-2.906;2023-01-16T11:26:23;99221.03;;;7.07;100.00
70370;BME280;57790;51.356;-2.906;2023-01-16T11:29:27;99217.13;;;7.03;100.00
70370;BME280;57790;51.356;-2.906;2023-01-16T11:32:30;99226.47;;;7.06;100.00
70370;BME280;57790;51.356;-2.906;2023-01-16T11:35:36;99224.94;;;6.97;100.00
70370;BME280;57790;51.356;-2.906;2023-01-16T11:38:39;99230.47;;;7.02;100.00
70370;BME280;57790;51.356;-2.906;2023-01-16T11:41:45;99215.63;;;7.09;100.00
70370;BME280;57790;51.356;-2.906;2023-01-16T11:44:47;99213.03;;;7.01;100.00
70370;BME280;57790;51.356;-2.906;2023-01-16T11:48:08;99220.34;;;7.13;100.00
70370;BME280;57790;51.356;-2.906;2023-01-16T11:51:28;99228.34;;;7.20;100.00
70370;BME280;57790;51.356;-2.906;2023-01-16T11:54:33;99222.88;;;7.22;100.00
70370;BME280;57790;51.356;-2.906;2023-01-16T11:58:01;99215.53;;;7.17;100.00
70370;BME280;57790;51.356;-2.906;2023-01-16T12:01:15;99223.69;;;6.84;100.00
70370;BME280;57790;51.356;-2.906;2023-01-16T12:04:25;99226.47;;;7.06;100.00
70370;BME280;57790;51.356;-2.906;2023-01-16T12:07:33;99215.25;;;7.12;100.00
70370;BME280;57790;51.356;-2.906;2023-01-16T12:14:02;99201.22;;;6.97;100.00
70370;BME280;57790;51.356;-2.906;2023-01-16T12:17:33;99201.44;;;7.10;100.00
70370;BME280;57790;51.356;-2.906;2023-01-16T12:20:49;99199.63;;;7.10;100.00
70370;BME280;57790;51.356;-2.906;2023-01-16T12:27:28;99192.25;;;7.21;100.00
70370;BME280;57790;51.356;-2.906;2023-01-16T12:53:42;99186.63;;;7.09;100.00
70370;BME280;57790;51.356;-2.906;2023-01-16T12:57:03;99195.00;;;7.12;100.00
70370;BME280;57790;51.356;-2.906;2023-01-16T13:00:20;99182.91;;;7.18;100.00
70370;BME280;57790;51.356;-2.906;2023-01-16T13:03:29;99185.09;;;7.14;100.00
70370;BME280;57790;51.356;-2.906;2023-01-16T13:06:58;99180.44;;;7.16;100.00
70370;BME280;57790;51.356;-2.906;2023-01-16T13:10:10;99186.28;;;7.12;100.00
70370;BME280;57790;51.356;-2.906;2023-01-16T13:13:36;99187.72;;;7.14;100.00
70370;BME280;57790;51.356;-2.906;2023-01-16T13:16:42;99185.72;;;7.16;100.00
70370;BME280;57790;51.356;-2.906;2023-01-16T13:19:44;99187.53;;;7.16;100.00
70370;BME280;57790;51.356;-2.906;2023-01-16T13:22:57;99198.53;;;7.20;100.00
70370;BME280;57790;51.356;-2.906;2023-01-16T13:26:03;99198.34;;;7.21;100.00
70370;BME280;57790;51.356;-2.906;2023-01-16T13:29:21;99195.91;;;7.20;100.00
70370;BME280;57790;51.356;-2.906;2023-01-16T13:32:44;99197.19;;;7.24;100.00
70370;BME280;57790;51.356;-2.906;2023-01-16T13:42:31;99179.56;;;7.24;100.00
70370;BME280;57790;51.356;-2.906;2023-01-16T13:45:33;99181.47;;;7.30;100.00
70370;BME280;57790;51.356;-2.906;2023-01-16T13:48:53;99175.56;;;7.28;100.00
70370;BME280;57790;51.356;-2.906;2023-01-16T13:51:54;99178.28;;;7.20;100.00
70370;BME280;57790;51.356;-2.906;2023-01-16T13:54:57;99173.19;;;7.19;100.00
70370;BME280;57790;51.356;-2.906;2023-01-16T13:58:20;99177.00;;;7.16;100.00
70370;BME280;57790;51.356;-2.906;2023-01-16T14:12:20;99194.09;;;7.20;100.00
70370;BME280;57790;51.356;-2.906;2023-01-16T14:15:23;99188.44;;;7.23;100.00
70370;BME280;57790;51.356;-2.906;2023-01-16T14:19:01;99193.38;;;7.26;100.00
70370;BME280;57790;51.356;-2.906;2023-01-16T14:22:03;99187.47;;;7.24;100.00
70370;BME280;57790;51.356;-2.906;2023-01-16T14:25:20;99195.38;;;7.24;100.00
70370;BME280;57790;51.356;-2.906;2023-01-16T14:28:21;99195.66;;;7.29;100.00
70370;BME280;57790;51.356;-2.906;2023-01-16T14:31:37;99196.53;;;7.22;100.00
70370;BME280;57790;51.356;-2.906;2023-01-16T14:34:45;99192.75;;;7.24;100.00
70370;BME280;57790;51.356;-2.906;2023-01-16T14:37:59;99193.91;;;7.22;100.00
70370;BME280;57790;51.356;-2.906;2023-01-16T14:41:03;99186.09;;;7.28;100.00
70370;BME280;57790;51.356;-2.906;2023-01-16T14:44:22;99174.19;;;7.18;100.00
70370;BME280;57790;51.356;-2.906;2023-01-16T14:47:49;99179.28;;;7.19;100.00
70370;BME280;57790;51.356;-2.906;2023-01-16T14:54:35;99181.19;;;7.25;100.00
70370;BME280;57790;51.356;-2.906;2023-01-16T14:57:56;99182.00;;;7.11;100.00
70370;BME280;57790;51.356;-2.906;2023-01-16T15:00:58;99191.56;;;7.27;100.00
70370;BME280;57790;51.356;-2.906;2023-01-16T15:04:56;99188.72;;;7.13;100.00
70370;BME280;57790;51.356;-2.906;2023-01-16T15:07:57;99198.34;;;7.21;100.00
70370;BME280;57790;51.356;-2.906;2023-01-16T15:11:05;99197.72;;;7.19;100.00
70370;BME280;57790;51.356;-2.906;2023-01-16T15:14:27;99204.00;;;7.18;100.00
70370;BME280;57790;51.356;-2.906;2023-01-16T15:17:35;99201.25;;;7.11;100.00
70370;BME280;57790;51.356;-2.906;2023-01-16T15:20:55;99205.34;;;7.14;100.00
70370;BME280;57790;51.356;-2.906;2023-01-16T15:24:20;99209.16;;;7.11;100.00
70370;BME280;57790;51.356;-2.906;2023-01-16T15:27:28;99207.44;;;7.19;100.00
70370;BME280;57790;51.356;-2.906;2023-01-16T15:30:31;99198.03;;;7.24;100.00
70370;BME280;57790;51.356;-2.906;2023-01-16T15:33:32;99201.63;;;7.23;100.00
70370;BME280;57790;51.356;-2.906;2023-01-16T15:36:49;99196.47;;;7.30;100.00
70370;BME280;57790;51.356;-2.906;2023-01-16T15:39:50;99196.28;;;7.31;100.00
70370;BME280;57790;51.356;-2.906;2023-01-16T15:42:53;99202.00;;;7.35;100.00
70370;BME280;57790;51.356;-2.906;2023-01-16T15:46:20;99197.28;;;7.30;100.00
70370;BME280;57790;51.356;-2.906;2023-01-16T15:49:44;99203.44;;;7.23;100.00
70370;BME280;57790;51.356;-2.906;2023-01-16T15:52:49;99199.34;;;7.20;100.00
70370;BME280;57790;51.356;-2.906;2023-01-16T15:56:07;99193.56;;;7.25;100.00
70370;BME280;57790;51.356;-2.906;2023-01-16T16:02:30;99193.44;;;7.18;100.00
70370;BME280;57790;51.356;-2.906;2023-01-16T16:05:32;99190.81;;;7.18;100.00
70370;BME280;57790;51.356;-2.906;2023-01-16T16:08:36;99193.63;;;7.16;100.00
70370;BME280;57790;51.356;-2.906;2023-01-16T16:11:37;99183.50;;;7.05;100.00
70370;BME280;57790;51.356;-2.906;2023-01-16T16:15:16;99182.50;;;7.06;100.00
70370;BME280;57790;51.356;-2.906;2023-01-16T16:18:35;99184.06;;;7.01;100.00
70370;BME280;57790;51.356;-2.906;2023-01-16T16:21:49;99186.09;;;6.91;100.00
70370;BME280;57790;51.356;-2.906;2023-01-16T16:25:21;99184.28;;;6.91;100.00
70370;BME280;57790;51.356;-2.906;2023-01-16T16:31:33;99197.94;;;6.95;100.00
70370;BME280;57790;51.356;-2.906;2023-01-16T16:34:37;99199.50;;;7.04;100.00
70370;BME280;57790;51.356;-2.906;2023-01-16T16:37:41;99207.94;;;6.99;100.00
70370;BME280;57790;51.356;-2.906;2023-01-16T16:41:00;99218.13;;;7.02;100.00
70370;BME280;57790;51.356;-2.906;2023-01-16T16:44:21;99211.03;;;7.03;100.00
70370;BME280;57790;51.356;-2.906;2023-01-16T16:47:26;99207.03;;;7.07;100.00
70370;BME280;57790;51.356;-2.906;2023-01-16T16:50:32;99209.59;;;7.00;100.00
70370;BME280;57790;51.356;-2.906;2023-01-16T16:53:33;99206.66;;;6.95;100.00
70370;BME280;57790;51.356;-2.906;2023-01-16T16:56:36;99208.75;;;7.00;100.00
70370;BME280;57790;51.356;-2.906;2023-01-16T16:59:37;99205.94;;;7.01;100.00
70370;BME280;57790;51.356;-2.906;2023-01-16T17:02:38;99205.31;;;6.99;100.00
70370;BME280;57790;51.356;-2.906;2023-01-16T17:05:39;99212.75;;;6.96;100.00
70370;BME280;57790;51.356;-2.906;2023-01-16T17:08:40;99214.22;;;6.98;100.00
70370;BME280;57790;51.356;-2.906;2023-01-16T17:11:40;99228.88;;;6.93;100.00
70370;BME280;57790;51.356;-2.906;2023-01-16T17:14:42;99210.75;;;6.98;100.00
70370;BME280;57790;51.356;-2.906;2023-01-16T17:17:44;99215.66;;;7.01;100.00
70370;BME280;57790;51.356;-2.906;2023-01-16T17:20:45;99216.66;;;7.00;100.00
70370;BME280;57790;51.356;-2.906;2023-01-16T17:23:46;99216.47;;;7.01;100.00
70370;BME280;57790;51.356;-2.906;2023-01-16T17:26:47;99210.00;;;6.89;100.00
70370;BME280;57790;51.356;-2.906;2023-01-16T17:29:48;99205.19;;;6.93;100.00
70370;BME280;57790;51.356;-2.906;2023-01-16T17:32:58;99203.50;;;6.77;100.00
70370;BME280;57790;51.356;-2.906;2023-01-16T17:35:59;99205.56;;;6.67;100.00
70370;BME280;57790;51.356;-2.906;2023-01-16T17:39:09;99206.84;;;6.71;100.00
70370;BME280;57790;51.356;-2.906;2023-01-16T17:42:10;99206.06;;;6.62;100.00
70370;BME280;57790;51.356;-2.906;2023-01-16T17:45:18;99195.91;;;6.59;100.00
70370;BME280;57790;51.356;-2.906;2023-01-16T17:48:41;99187.00;;;6.60;100.00
70370;BME280;57790;51.356;-2.906;2023-01-16T17:51:41;99173.84;;;6.60;100.00
70370;BME280;57790;51.356;-2.906;2023-01-16T17:54:41;99179.50;;;6.49;100.00
70370;BME280;57790;51.356;-2.906;2023-01-16T17:58:00;99174.72;;;6.52;100.00
70370;BME280;57790;51.356;-2.906;2023-01-16T18:01:03;99183.44;;;6.53;100.00
70370;BME280;57790;51.356;-2.906;2023-01-16T18:04:04;99184.59;;;6.50;100.00
70370;BME280;57790;51.356;-2.906;2023-01-16T18:07:10;99179.19;;;6.52;100.00
70370;BME280;57790;51.356;-2.906;2023-01-16T18:10:10;99174.25;;;6.49;100.00
70370;BME280;57790;51.356;-2.906;2023-01-16T18:13:11;99181.56;;;6.39;100.00
70370;BME280;57790;51.356;-2.906;2023-01-16T18:16:30;99178.94;;;6.39;100.00
70370;BME280;57790;51.356;-2.906;2023-01-16T18:19:53;99180.25;;;6.35;100.00
70370;BME280;57790;51.356;-2.906;2023-01-16T18:22:57;99186.22;;;6.29;100.00
70370;BME280;57790;51.356;-2.906;2023-01-16T18:25:57;99184.88;;;6.33;100.00
70370;BME280;57790;51.356;-2.906;2023-01-16T18:28:58;99188.03;;;6.28;100.00
70370;BME280;57790;51.356;-2.906;2023-01-16T18:31:58;99184.28;;;6.22;100.00
70370;BME280;57790;51.356;-2.906;2023-01-16T18:35:17;99173.78;;;6.22;100.00
70370;BME280;57790;51.356;-2.906;2023-01-16T18:38:17;99174.44;;;6.16;100.00
70370;BME280;57790;51.356;-2.906;2023-01-16T18:41:37;99174.31;;;6.10;100.00